createdAt,value
2023-05-02T00:01:19.475Z,7.10
2023-05-02T00:03:46.518Z,7.00
2023-05-02T00:06:13.471Z,7.00
2023-05-02T00:08:40.320Z,7.00
2023-05-02T00:11:07.292Z,6.90
2023-05-02T00:13:34.081Z,6.90
2023-05-02T00:16:00.808Z,6.80
2023-05-02T00:18:27.637Z,6.80
2023-05-02T00:20:56.714Z,6.80
2023-05-02T00:23:24.004Z,6.70
2023-05-02T00:25:51.015Z,6.60
2023-05-02T00:28:18.549Z,6.60
2023-05-02T00:30:46.183Z,6.60
2023-05-02T00:33:14.828Z,6.70
2023-05-02T00:35:42.031Z,6.60
2023-05-02T00:38:09.032Z,6.50
2023-05-02T00:40:53.831Z,6.40
2023-05-02T00:43:21.223Z,6.40
2023-05-02T00:45:48.775Z,6.30
2023-05-02T00:48:17.850Z,6.20
2023-05-02T00:50:44.694Z,6.20
2023-05-02T00:53:11.570Z,6.20
2023-05-02T00:55:38.757Z,6.20
2023-05-02T00:58:11.051Z,6.30
2023-05-02T01:00:53.109Z,6.30
2023-05-02T01:03:35.012Z,6.30
2023-05-02T01:06:05.031Z,6.20
2023-05-02T01:09:05.280Z,6.20
2023-05-02T01:12:09.685Z,6.10
2023-05-02T01:14:42.696Z,6.10
2023-05-02T01:17:13.199Z,6.00
2023-05-02T01:19:43.622Z,5.90
2023-05-02T01:22:11.723Z,5.90
2023-05-02T01:25:20.471Z,5.90
2023-05-02T01:28:15.045Z,5.80
2023-05-02T01:30:45.926Z,5.80
2023-05-02T01:33:16.988Z,5.80
2023-05-02T01:35:46.302Z,5.80
2023-05-02T01:38:16.411Z,5.80
2023-05-02T01:40:46.160Z,5.80
2023-05-02T01:43:15.352Z,5.90
2023-05-02T01:45:45.459Z,5.90
2023-05-02T01:48:14.477Z,5.80
2023-05-02T01:50:43.823Z,5.70
2023-05-02T01:53:13.719Z,5.60
2023-05-02T01:55:45.229Z,5.50
2023-05-02T01:58:14.492Z,5.40
2023-05-02T02:00:45.099Z,5.30
2023-05-02T02:03:12.756Z,5.30
2023-05-02T02:05:41.557Z,5.30
2023-05-02T02:08:09.042Z,5.30
2023-05-02T02:10:41.393Z,5.30
2023-05-02T02:13:23.041Z,5.30
2023-05-02T02:15:53.623Z,5.30
2023-05-02T02:18:23.053Z,5.40
2023-05-02T02:20:52.071Z,5.30
2023-05-02T02:23:20.893Z,5.30
2023-05-02T02:25:50.921Z,5.30
2023-05-02T02:28:17.808Z,5.20
2023-05-02T02:30:44.771Z,5.20
2023-05-02T02:33:11.653Z,5.20
2023-05-02T02:35:44.413Z,5.20
2023-05-02T02:38:38.254Z,5.10
2023-05-02T02:41:21.025Z,5.10
2023-05-02T02:44:47.093Z,5.00
2023-05-02T02:47:26.037Z,4.90
2023-05-02T02:50:07.749Z,4.80
2023-05-02T02:53:06.120Z,4.80
2023-05-02T02:55:57.767Z,4.80
2023-05-02T02:58:36.806Z,4.80
2023-05-02T03:01:06.598Z,4.80
2023-05-02T03:03:34.426Z,4.70
2023-05-02T03:06:03.800Z,4.60
2023-05-02T03:08:40.108Z,4.50
2023-05-02T03:11:06.907Z,4.40
2023-05-02T03:13:33.705Z,4.30
2023-05-02T03:16:35.637Z,4.40
2023-05-02T03:19:03.635Z,4.40
2023-05-02T03:21:33.884Z,4.60
2023-05-02T03:24:01.603Z,4.60
2023-05-02T03:26:29.016Z,4.60
2023-05-02T03:28:56.584Z,4.60
2023-05-02T03:31:26.042Z,4.50
2023-05-02T03:33:53.365Z,4.50
2023-05-02T03:36:20.123Z,4.50
2023-05-02T03:38:46.857Z,4.60
2023-05-02T03:41:13.674Z,4.60
2023-05-02T03:43:40.449Z,4.70
2023-05-02T03:46:09.267Z,4.70
2023-05-02T03:48:36.594Z,4.80
2023-05-02T03:51:05.054Z,4.80
2023-05-02T03:53:31.894Z,4.80
2023-05-02T03:55:58.752Z,4.80
2023-05-02T03:58:26.917Z,4.80
2023-05-02T04:00:54.063Z,4.80
2023-05-02T04:03:21.776Z,4.80
2023-05-02T04:05:48.543Z,4.80
2023-05-02T04:08:15.304Z,4.90
2023-05-02T04:10:42.023Z,4.90
2023-05-02T04:13:09.635Z,4.90
2023-05-02T04:15:36.463Z,4.90
2023-05-02T04:18:03.451Z,5.10
2023-05-02T04:20:30.438Z,5.20
2023-05-02T04:22:57.191Z,5.30
2023-05-02T04:25:23.986Z,5.40
2023-05-02T04:27:50.739Z,5.40
2023-05-02T04:30:17.564Z,5.50
2023-05-02T04:32:44.534Z,5.50
2023-05-02T04:35:11.949Z,5.60
2023-05-02T04:37:38.794Z,5.60
2023-05-02T04:40:06.590Z,5.60
2023-05-02T04:42:33.290Z,5.60
2023-05-02T04:45:00.014Z,5.50
2023-05-02T04:47:27.103Z,5.60
2023-05-02T04:49:53.924Z,5.60
2023-05-02T04:52:20.758Z,5.60
2023-05-02T04:54:47.527Z,5.60
2023-05-02T04:57:14.676Z,5.80
2023-05-02T04:59:41.452Z,5.80
2023-05-02T05:02:09.015Z,5.80
2023-05-02T05:04:35.819Z,5.80
2023-05-02T05:07:02.693Z,5.80
2023-05-02T05:09:29.467Z,5.70
2023-05-02T05:11:56.501Z,5.80
2023-05-02T05:14:24.266Z,5.90
2023-05-02T05:16:51.084Z,6.00
2023-05-02T05:19:18.140Z,5.90
2023-05-02T05:21:44.904Z,6.00
2023-05-02T05:24:11.630Z,6.00
2023-05-02T05:26:38.338Z,6.10
2023-05-02T05:29:05.170Z,6.30
2023-05-02T05:31:31.971Z,6.30
2023-05-02T05:33:58.859Z,6.40
2023-05-02T05:36:26.404Z,6.50
2023-05-02T05:38:53.332Z,6.50
2023-05-02T05:41:20.046Z,6.60
2023-05-02T05:43:46.781Z,6.60
2023-05-02T05:46:13.497Z,6.70
2023-05-02T05:48:40.510Z,6.80
2023-05-02T05:51:07.584Z,6.90
2023-05-02T05:53:34.490Z,6.90
2023-05-02T05:56:12.160Z,7.00
2023-05-02T05:58:40.102Z,7.00
2023-05-02T06:01:07.847Z,7.20
2023-05-02T06:03:34.728Z,7.20
2023-05-02T06:06:01.845Z,7.30
2023-05-02T06:08:30.083Z,7.50
2023-05-02T06:10:56.859Z,7.50
2023-05-02T06:13:24.101Z,7.60
2023-05-02T06:15:51.041Z,7.80
2023-05-02T06:18:17.794Z,7.90
2023-05-02T06:20:44.589Z,8.10
2023-05-02T06:23:11.651Z,8.20
2023-05-02T06:25:39.091Z,8.20
2023-05-02T06:28:06.153Z,8.40
2023-05-02T06:30:33.834Z,8.50
2023-05-02T06:33:00.719Z,8.50
2023-05-02T06:35:27.577Z,8.60
2023-05-02T06:37:54.392Z,8.70
2023-05-02T06:40:21.630Z,8.80
2023-05-02T06:42:49.004Z,8.90
2023-05-02T06:45:15.899Z,9.10
2023-05-02T06:47:43.065Z,9.10
2023-05-02T06:50:11.446Z,9.20
2023-05-02T06:52:38.215Z,9.30
2023-05-02T06:55:05.568Z,9.40
2023-05-02T06:57:32.374Z,9.50
2023-05-02T06:59:59.507Z,9.60
2023-05-02T07:02:26.690Z,9.80
2023-05-02T07:04:53.495Z,9.90
2023-05-02T07:07:22.119Z,10.10
2023-05-02T07:09:49.787Z,10.20
2023-05-02T07:12:16.925Z,10.40
2023-05-02T07:14:44.380Z,10.50
2023-05-02T07:17:11.207Z,10.50
2023-05-02T07:19:38.893Z,10.70
2023-05-02T07:22:06.826Z,10.80
2023-05-02T07:24:33.620Z,10.90
2023-05-02T07:27:00.772Z,11.10
2023-05-02T07:29:27.647Z,11.20
2023-05-02T07:31:54.442Z,11.50
2023-05-02T07:34:21.183Z,11.60
2023-05-02T07:36:48.302Z,11.80
2023-05-02T07:39:15.059Z,11.90
2023-05-02T07:41:41.799Z,12.10
2023-05-02T07:44:08.776Z,12.20
2023-05-02T07:46:35.522Z,12.30
2023-05-02T07:49:02.348Z,12.30
2023-05-02T07:51:29.331Z,12.30
2023-05-02T07:54:01.175Z,12.40
2023-05-02T07:56:28.456Z,12.40
2023-05-02T07:58:55.196Z,12.60
2023-05-02T08:01:22.481Z,12.70
2023-05-02T08:03:49.852Z,12.70
2023-05-02T08:06:17.045Z,12.80
2023-05-02T08:08:43.901Z,12.80
2023-05-02T08:11:13.035Z,12.70
2023-05-02T08:13:40.717Z,12.80
2023-05-02T08:16:08.760Z,13.00
2023-05-02T08:18:35.636Z,13.20
2023-05-02T08:21:05.617Z,13.20
2023-05-02T08:23:32.813Z,13.20
2023-05-02T08:25:59.595Z,13.30
2023-05-02T08:28:26.491Z,13.50
2023-05-02T08:30:53.449Z,13.50
2023-05-02T08:33:20.444Z,13.30
2023-05-02T08:35:48.689Z,13.10
2023-05-02T08:38:15.592Z,12.90
2023-05-02T08:40:43.411Z,13.20
2023-05-02T08:43:12.901Z,13.20
2023-05-02T08:45:42.205Z,13.30
2023-05-02T08:48:17.258Z,13.40
2023-05-02T08:50:48.154Z,13.50
2023-05-02T08:53:15.687Z,13.60
2023-05-02T08:55:43.197Z,13.70
2023-05-02T08:58:13.253Z,13.70
2023-05-02T09:00:42.504Z,13.80
2023-05-02T09:03:28.415Z,13.70
2023-05-02T09:06:06.184Z,13.70
2023-05-02T09:08:35.774Z,13.60
2023-05-02T09:11:03.993Z,13.70
2023-05-02T09:13:32.005Z,13.80
2023-05-02T09:16:10.610Z,13.70
2023-05-02T09:18:49.637Z,13.80
2023-05-02T09:21:23.726Z,14.00
2023-05-02T09:23:58.981Z,14.10
2023-05-02T09:26:32.613Z,14.10
2023-05-02T09:29:07.890Z,14.20
2023-05-02T09:34:13.774Z,14.50
2023-05-02T09:36:45.234Z,14.60
2023-05-02T09:39:17.468Z,14.50
2023-05-02T09:41:48.198Z,14.80
2023-05-02T09:44:20.604Z,14.90
2023-05-02T09:46:55.590Z,14.70
2023-05-02T09:49:42.310Z,14.60
2023-05-02T09:52:18.434Z,14.80
2023-05-02T09:54:48.108Z,14.80
2023-05-02T09:57:16.158Z,14.70
2023-05-02T09:59:56.555Z,14.80
2023-05-02T10:02:25.715Z,14.80
2023-05-02T10:04:57.921Z,14.80
2023-05-02T10:07:25.993Z,14.80
2023-05-02T10:09:58.867Z,14.70
2023-05-02T10:12:27.933Z,14.80
2023-05-02T10:15:00.721Z,14.90
2023-05-02T10:17:43.640Z,15.00
2023-05-02T10:20:16.286Z,15.10
2023-05-02T10:22:45.156Z,15.10
2023-05-02T10:25:13.293Z,15.30
2023-05-02T10:27:40.325Z,14.90
2023-05-02T10:30:09.273Z,14.80
2023-05-02T10:32:37.998Z,14.70
2023-05-02T10:35:06.507Z,14.60
2023-05-02T10:37:36.122Z,14.60
2023-05-02T10:40:04.126Z,14.70
2023-05-02T10:42:37.922Z,14.60
2023-05-02T10:45:06.085Z,14.60
2023-05-02T10:47:33.606Z,14.50
2023-05-02T10:50:02.397Z,14.50
2023-05-02T10:52:34.418Z,14.50
2023-05-02T10:55:15.743Z,14.40
2023-05-02T10:57:58.527Z,14.40
2023-05-02T11:00:30.806Z,14.40
2023-05-02T11:02:58.014Z,14.30
2023-05-02T11:05:26.224Z,14.50
2023-05-02T11:08:23.035Z,14.50
2023-05-02T11:10:50.308Z,14.50
2023-05-02T11:13:37.063Z,14.60
2023-05-02T11:16:04.101Z,14.70
2023-05-02T11:19:03.439Z,14.60
2023-05-02T11:21:32.608Z,14.60
2023-05-02T11:24:37.760Z,14.70
2023-05-02T11:27:29.931Z,14.80
2023-05-02T11:30:07.094Z,14.80
2023-05-02T11:32:49.571Z,14.90
2023-05-02T11:35:24.805Z,15.00
2023-05-02T11:37:55.170Z,15.20
2023-05-02T11:40:22.683Z,15.10
2023-05-02T11:42:49.635Z,15.20
2023-05-02T11:45:16.808Z,15.40
2023-05-02T11:47:46.135Z,15.80
2023-05-02T11:50:13.160Z,16.20
2023-05-02T11:52:41.958Z,16.40
2023-05-02T11:55:11.860Z,16.80
2023-05-02T11:57:39.449Z,17.40
2023-05-02T12:00:07.864Z,17.80
2023-05-02T12:02:46.132Z,17.80
2023-05-02T12:05:14.583Z,18.00
2023-05-02T12:07:42.840Z,17.80
2023-05-02T12:10:11.629Z,17.80
2023-05-02T12:12:39.704Z,18.10
2023-05-02T12:15:12.117Z,18.80
2023-05-02T12:17:52.120Z,18.80
2023-05-02T12:20:19.441Z,18.80
2023-05-02T12:22:47.515Z,19.20
2023-05-02T12:25:14.393Z,19.80
2023-05-02T12:27:41.259Z,19.00
2023-05-02T12:30:08.893Z,19.30
2023-05-02T12:32:37.093Z,19.40
2023-05-02T12:35:04.335Z,19.90
2023-05-02T12:37:31.383Z,20.90
2023-05-02T12:39:58.206Z,21.50
2023-05-02T12:42:26.666Z,21.20
2023-05-02T12:44:53.600Z,21.50
2023-05-02T12:47:22.530Z,21.00
2023-05-02T12:49:57.401Z,21.40
2023-05-02T12:52:46.322Z,21.50
2023-05-02T12:55:27.805Z,20.30
2023-05-02T12:58:26.588Z,20.10
2023-05-02T13:00:53.327Z,20.30
2023-05-02T13:03:20.674Z,20.50
2023-05-02T13:05:47.542Z,20.60
2023-05-02T13:08:14.285Z,20.50
2023-05-02T13:10:42.167Z,19.80
2023-05-02T13:13:09.088Z,19.80
2023-05-02T13:15:36.217Z,19.90
2023-05-02T13:18:03.223Z,19.80
2023-05-02T13:20:30.393Z,19.60
2023-05-02T13:22:57.653Z,19.60
2023-05-02T13:25:24.646Z,20.20
2023-05-02T13:27:51.797Z,20.40
2023-05-02T13:30:18.551Z,20.60
2023-05-02T13:32:45.346Z,21.40
2023-05-02T13:35:14.098Z,21.40
2023-05-02T13:37:41.579Z,21.30
2023-05-02T13:40:09.077Z,20.90
2023-05-02T13:42:36.198Z,20.60
2023-05-02T13:45:05.114Z,19.80
2023-05-02T13:47:32.024Z,19.40
2023-05-02T13:49:59.558Z,19.80
2023-05-02T13:52:26.535Z,19.90
2023-05-02T13:54:53.294Z,19.90
2023-05-02T13:57:19.990Z,20.80
2023-05-02T13:59:46.699Z,22.10
2023-05-02T14:02:13.413Z,23.00
2023-05-02T14:04:40.172Z,23.10
2023-05-02T14:07:07.204Z,23.40
2023-05-02T14:09:34.068Z,23.70
2023-05-02T14:12:01.949Z,23.90
2023-05-02T14:14:29.884Z,23.90
2023-05-02T14:16:56.710Z,24.20
2023-05-02T14:19:23.484Z,24.30
2023-05-02T14:21:50.216Z,25.00
2023-05-02T14:24:18.299Z,25.70
2023-05-02T14:26:45.105Z,25.80
2023-05-02T14:29:12.090Z,26.20
2023-05-02T14:31:42.277Z,25.70
2023-05-02T14:34:09.385Z,25.80
2023-05-02T14:36:36.271Z,25.70
2023-05-02T14:39:03.026Z,24.50
2023-05-02T14:41:29.916Z,24.70
2023-05-02T14:43:56.633Z,25.10
2023-05-02T14:46:23.635Z,24.50
2023-05-02T14:48:50.505Z,23.60
2023-05-02T14:51:17.267Z,22.80
2023-05-02T14:53:44.004Z,22.20
2023-05-02T14:56:17.183Z,22.10
2023-05-02T14:58:44.258Z,22.00
2023-05-02T15:01:18.587Z,22.60
2023-05-02T15:04:05.286Z,22.10
2023-05-02T15:06:34.962Z,21.40
2023-05-02T15:09:02.149Z,20.40
2023-05-02T15:11:30.309Z,19.30
2023-05-02T15:13:59.487Z,18.40
2023-05-02T15:16:27.261Z,18.10
2023-05-02T15:18:54.676Z,17.80
2023-05-02T15:21:21.628Z,17.70
2023-05-02T15:23:48.376Z,17.50
2023-05-02T15:26:15.241Z,17.10
2023-05-02T15:28:42.183Z,16.70
2023-05-02T15:31:09.149Z,16.50
2023-05-02T15:33:37.331Z,16.40
2023-05-02T15:36:04.285Z,16.40
2023-05-02T15:38:31.082Z,16.70
2023-05-02T15:40:59.933Z,16.30
2023-05-02T15:43:27.277Z,16.20
2023-05-02T15:45:57.799Z,15.90
2023-05-02T15:48:28.253Z,15.70
2023-05-02T15:50:55.088Z,15.80
2023-05-02T15:53:24.165Z,15.60
2023-05-02T15:55:52.267Z,15.20
2023-05-02T15:58:19.843Z,14.90
2023-05-02T16:00:51.866Z,14.90
2023-05-02T16:03:18.953Z,14.60
2023-05-02T16:05:50.440Z,14.40
2023-05-02T16:08:17.208Z,14.70
2023-05-02T16:10:44.034Z,15.30
2023-05-02T16:13:12.742Z,14.90
2023-05-02T16:15:39.646Z,14.90
2023-05-02T16:18:06.960Z,14.90
2023-05-02T16:20:36.535Z,14.80
2023-05-02T16:23:04.043Z,14.80
2023-05-02T16:25:30.908Z,14.90
2023-05-02T16:27:57.802Z,14.90
2023-05-02T16:30:24.625Z,15.00
2023-05-02T16:32:51.604Z,15.20
2023-05-02T16:35:19.860Z,15.40
2023-05-02T16:37:46.667Z,15.80
2023-05-02T16:40:14.080Z,16.50
2023-05-02T16:42:41.006Z,17.20
2023-05-02T16:48:54.134Z,16.80
2023-05-02T16:51:21.293Z,16.30
2023-05-02T16:53:48.080Z,15.80
2023-05-02T16:56:15.002Z,15.60
2023-05-02T16:58:42.165Z,15.30
2023-05-02T17:01:09.151Z,15.30
2023-05-02T17:03:36.095Z,15.30
2023-05-02T17:06:03.430Z,15.20
2023-05-02T17:08:30.447Z,15.50
2023-05-02T17:10:57.471Z,15.80
2023-05-02T17:13:24.281Z,15.80
2023-05-02T17:15:52.707Z,15.80
2023-05-02T17:18:19.615Z,16.00
2023-05-02T17:20:46.994Z,16.10
2023-05-02T17:23:14.517Z,15.90
2023-05-02T17:25:42.114Z,15.90
2023-05-02T17:28:09.617Z,15.60
2023-05-02T17:30:36.862Z,15.50
2023-05-02T17:33:03.825Z,15.60
2023-05-02T17:35:31.625Z,15.50
2023-05-02T17:37:58.438Z,15.50
2023-05-02T17:40:25.397Z,15.50
2023-05-02T17:42:52.473Z,15.60
2023-05-02T17:45:19.223Z,15.60
2023-05-02T17:47:46.110Z,15.40
2023-05-02T17:50:14.105Z,15.40
2023-05-02T17:52:41.000Z,15.20
2023-05-02T17:55:08.662Z,15.20
2023-05-02T17:57:35.695Z,15.00
2023-05-02T18:00:04.585Z,14.80
2023-05-02T18:02:33.460Z,14.60
2023-05-02T18:05:02.767Z,14.50
2023-05-02T18:07:31.415Z,14.40
2023-05-02T18:10:02.027Z,14.30
2023-05-02T18:12:29.419Z,14.10
2023-05-02T18:14:56.858Z,13.90
2023-05-02T18:17:24.198Z,13.60
2023-05-02T18:19:51.033Z,13.40
2023-05-02T18:22:21.204Z,13.20
2023-05-02T18:24:49.510Z,13.20
2023-05-02T18:27:17.024Z,13.20
2023-05-02T18:29:43.919Z,13.20
2023-05-02T18:32:10.963Z,13.20
2023-05-02T18:34:39.048Z,13.20
2023-05-02T18:37:06.932Z,13.10
2023-05-02T18:39:35.049Z,13.10
2023-05-02T18:42:03.196Z,13.00
2023-05-02T18:44:30.819Z,13.00
2023-05-02T18:46:58.593Z,13.00
2023-05-02T18:49:26.205Z,13.10
2023-05-02T18:51:54.356Z,13.00
2023-05-02T18:54:23.147Z,12.90
2023-05-02T18:56:49.908Z,12.70
2023-05-02T18:59:16.727Z,12.40
2023-05-02T19:01:46.423Z,12.10
2023-05-02T19:04:13.233Z,11.90
2023-05-02T19:06:41.808Z,12.00
2023-05-02T19:09:08.634Z,11.90
2023-05-02T19:11:35.458Z,11.80
2023-05-02T19:14:03.612Z,11.80
2023-05-02T19:16:31.524Z,11.80
2023-05-02T19:18:58.708Z,11.80
2023-05-02T19:21:25.777Z,11.70
2023-05-02T19:23:53.003Z,11.50
2023-05-02T19:26:20.230Z,11.40
2023-05-02T19:28:47.828Z,11.40
2023-05-02T19:31:17.904Z,11.40
2023-05-02T19:33:54.921Z,11.40
2023-05-02T19:36:23.793Z,11.30
2023-05-02T19:38:54.972Z,11.30
2023-05-02T19:41:24.704Z,11.30
2023-05-02T19:43:52.281Z,11.30
2023-05-02T19:46:19.510Z,11.30
2023-05-02T19:48:46.395Z,11.30
2023-05-02T19:51:13.489Z,11.30
2023-05-02T19:53:41.503Z,11.20
2023-05-02T19:56:08.340Z,11.10
2023-05-02T19:58:35.834Z,10.90
2023-05-02T20:01:03.321Z,10.90
2023-05-02T20:03:30.591Z,10.80
2023-05-02T20:05:58.318Z,10.70
2023-05-02T20:08:27.673Z,10.60
2023-05-02T20:10:56.102Z,10.40
2023-05-02T20:13:22.943Z,10.30
2023-05-02T20:15:51.403Z,10.10
2023-05-02T20:18:20.829Z,10.20
2023-05-02T20:20:48.105Z,10.00
2023-05-02T20:23:14.964Z,10.00
2023-05-02T20:25:42.889Z,10.10
2023-05-02T20:28:10.570Z,10.10
2023-05-02T20:30:39.698Z,10.20
2023-05-02T20:33:14.630Z,10.30
2023-05-02T20:35:42.295Z,10.30
2023-05-02T20:38:09.051Z,10.30
2023-05-02T20:40:39.467Z,10.40
2023-05-02T20:43:07.373Z,10.60
2023-05-02T20:45:34.260Z,10.70
2023-05-02T20:48:01.258Z,10.60
2023-05-02T20:50:28.305Z,10.60
2023-05-02T20:52:55.278Z,10.60
2023-05-02T20:55:22.975Z,10.70
2023-05-02T20:57:53.373Z,10.80
2023-05-02T21:00:22.345Z,11.00
2023-05-02T21:02:50.011Z,11.10
2023-05-02T21:05:16.940Z,11.10
2023-05-02T21:07:44.677Z,11.10
2023-05-02T21:10:11.652Z,11.00
2023-05-02T21:12:39.418Z,11.00
2023-05-02T21:15:07.444Z,11.10
2023-05-02T21:17:34.356Z,11.10
2023-05-02T21:20:01.620Z,11.10
2023-05-02T21:22:28.729Z,11.10
2023-05-02T21:24:55.843Z,11.10
2023-05-02T21:27:22.990Z,11.00
2023-05-02T21:29:49.944Z,10.90
2023-05-02T21:32:22.432Z,10.80
2023-05-02T21:34:49.183Z,10.70
2023-05-02T21:37:15.929Z,10.50
2023-05-02T21:39:42.746Z,10.30
2023-05-02T21:42:09.431Z,10.30
2023-05-02T21:44:36.291Z,10.30
2023-05-02T21:47:03.067Z,10.20
2023-05-02T21:49:31.143Z,10.20
2023-05-02T21:52:01.256Z,10.10
2023-05-02T21:54:28.117Z,10.10
2023-05-02T21:56:54.839Z,9.90
2023-05-02T21:59:21.605Z,9.70
2023-05-02T22:01:48.445Z,9.60
2023-05-02T22:04:15.238Z,9.60
2023-05-02T22:06:42.855Z,9.60
2023-05-02T22:09:10.322Z,9.60
2023-05-02T22:11:37.327Z,9.60
2023-05-02T22:14:04.124Z,9.60
2023-05-02T22:16:30.986Z,9.40
2023-05-02T22:18:57.975Z,9.40
2023-05-02T22:21:25.121Z,9.20
2023-05-02T22:23:51.873Z,9.20
2023-05-02T22:26:18.655Z,9.00
2023-05-02T22:28:45.757Z,8.90
2023-05-02T22:31:14.125Z,8.80
2023-05-02T22:33:49.491Z,8.70
2023-05-02T22:36:17.936Z,8.60
2023-05-02T22:38:44.705Z,8.60
2023-05-02T22:41:11.476Z,8.50
2023-05-02T22:43:38.178Z,8.40
2023-05-02T22:46:04.991Z,8.40
2023-05-02T22:48:31.876Z,8.40
2023-05-02T22:50:58.688Z,8.30
2023-05-02T22:53:26.035Z,8.30
2023-05-02T22:55:53.735Z,8.20
2023-05-02T22:58:20.597Z,8.10
2023-05-02T23:00:47.460Z,8.10
2023-05-02T23:03:14.293Z,8.00
2023-05-02T23:05:41.613Z,8.00
2023-05-02T23:08:08.665Z,8.00
2023-05-02T23:10:35.601Z,8.00
2023-05-02T23:13:02.501Z,8.00
2023-05-02T23:15:29.455Z,8.00
2023-05-02T23:17:56.239Z,7.90
2023-05-02T23:20:23.372Z,7.70
2023-05-02T23:22:51.160Z,7.40
2023-05-02T23:25:18.914Z,7.40
2023-05-02T23:27:45.760Z,7.30
2023-05-02T23:30:12.735Z,7.30
2023-05-02T23:32:39.989Z,7.30
2023-05-02T23:35:07.418Z,7.40
2023-05-02T23:37:34.197Z,7.50
2023-05-02T23:40:01.349Z,7.50
2023-05-02T23:42:33.786Z,7.60
2023-05-02T23:45:00.690Z,7.60
2023-05-02T23:47:27.527Z,7.60
2023-05-02T23:49:54.404Z,7.60
2023-05-02T23:52:21.260Z,7.70
2023-05-02T23:54:48.263Z,7.70
2023-05-02T23:57:15.323Z,7.60
2023-05-02T23:59:42.116Z,7.70
